Impacts METAR Board INFO
IDs:

KCVG - Cincinnati Intl, KY, US

Updated at: 1511 UTC 19 Jan 2018
Potential Impact None Slight Moderate High
Time19/03Z 19/04Z 19/05Z 19/06Z 19/07Z 19/08Z 19/09Z 19/10Z 19/11Z 19/12Z 19/13Z 19/14Z 19/15Z
VIS10 10 10 10 10 10 10 10 10 10 10 10 10
CIG-- -- -- -- -- -- -- -- -- -- -- -- --
CoverCLRCLRCLRCLRCLRCLRCLRCLRCLRCLRSCTSCTSCT
FltCatVFRVFRVFRVFRVFRVFRVFRVFRVFRVFRVFRVFRVFR
WX--------------------------
WDir210210210210210200210200200200200200200
WSpd9 8 11 7 10 9 6 8 7 12 9 11 9
WGst-- -- -- -- -- -- -- -- -- -- -- -- --
Raw hourly METARs
KCVG 190252Z 21009KT 10SM CLR M04/M10 A3021 RMK AO2 SLP240 T10391100 58007
KCVG 190352Z 21008KT 10SM CLR M04/M10 A3021 RMK AO2 SLP240 T10441100
KCVG 190452Z 21011KT 10SM CLR M05/M10 A3019 RMK AO2 SLP232 T10501100 410061122
KCVG 190552Z 21007KT 10SM CLR M05/M11 A3018 RMK AO2 SLP229 4/003 T10501106 11028 21056 58009
KCVG 190652Z 21010KT 10SM CLR M06/M11 A3016 RMK AO2 SLP223 T10561106
KCVG 190752Z 20009KT 10SM CLR M06/M11 A3016 RMK AO2 SLP222 T10561106
KCVG 190852Z 21006KT 10SM CLR M06/M11 A3018 RMK AO2 SLP227 T10611106 55002
KCVG 190952Z 20008KT 10SM CLR M06/M11 A3017 RMK AO2 SLP227 T10611111
KCVG 191052Z 20007KT 10SM CLR M07/M11 A3017 RMK AO2 SLP225 T10671111
KCVG 191152Z 20012KT 10SM CLR M06/M11 A3015 RMK AO2 SLP219 4/003 T10611111 11050 21067 58008
KCVG 191252Z 20009KT 10SM SCT300 M06/M11 A3016 RMK AO2 SLP222 T10611111
KCVG 191352Z 20011KT 10SM SCT300 M06/M11 A3016 RMK AO2 SLP223 T10561106
KCVG 191452Z 20009KT 10SM SCT300 M04/M10 A3016 RMK AO2 SLP222 T10391100 50002